sensor_id;sensor_type;location;lat;lon;timestamp;temperature;humidity
13721;DHT22;6932;51.438;5.470;2023-01-19T00:00:02;10.40;78.50
13721;DHT22;6932;51.438;5.470;2023-01-19T00:02:29;10.40;78.50
13721;DHT22;6932;51.438;5.470;2023-01-19T00:04:54;10.40;78.60
13721;DHT22;6932;51.438;5.470;2023-01-19T00:07:21;10.40;78.60
13721;DHT22;6932;51.438;5.470;2023-01-19T00:09:46;10.40;78.60
13721;DHT22;6932;51.438;5.470;2023-01-19T00:12:12;10.40;78.70
13721;DHT22;6932;51.438;5.470;2023-01-19T00:14:38;10.40;78.70
13721;DHT22;6932;51.438;5.470;2023-01-19T00:17:03;10.40;78.70
13721;DHT22;6932;51.438;5.470;2023-01-19T00:19:29;10.40;78.70
13721;DHT22;6932;51.438;5.470;2023-01-19T00:21:55;10.40;78.70
13721;DHT22;6932;51.438;5.470;2023-01-19T00:24:21;10.40;78.70
13721;DHT22;6932;51.438;5.470;2023-01-19T00:26:46;10.40;78.70
13721;DHT22;6932;51.438;5.470;2023-01-19T00:29:13;10.40;78.80
13721;DHT22;6932;51.438;5.470;2023-01-19T00:31:40;10.40;78.80
13721;DHT22;6932;51.438;5.470;2023-01-19T00:34:06;10.40;78.80
13721;DHT22;6932;51.438;5.470;2023-01-19T00:36:33;10.40;78.80
13721;DHT22;6932;51.438;5.470;2023-01-19T00:38:59;10.40;78.90
13721;DHT22;6932;51.438;5.470;2023-01-19T00:41:25;10.40;78.90
13721;DHT22;6932;51.438;5.470;2023-01-19T00:44:10;10.40;78.90
13721;DHT22;6932;51.438;5.470;2023-01-19T00:46:37;10.40;78.90
13721;DHT22;6932;51.438;5.470;2023-01-19T00:49:04;10.40;78.90
13721;DHT22;6932;51.438;5.470;2023-01-19T00:51:30;10.40;79.00
13721;DHT22;6932;51.438;5.470;2023-01-19T00:53:56;10.40;79.00
13721;DHT22;6932;51.438;5.470;2023-01-19T00:56:24;10.40;79.00
13721;DHT22;6932;51.438;5.470;2023-01-19T00:58:50;10.40;79.00
13721;DHT22;6932;51.438;5.470;2023-01-19T01:01:15;10.40;78.90
13721;DHT22;6932;51.438;5.470;2023-01-19T01:03:41;10.40;78.90
13721;DHT22;6932;51.438;5.470;2023-01-19T01:06:07;10.40;78.90
13721;DHT22;6932;51.438;5.470;2023-01-19T01:08:34;10.40;78.90
13721;DHT22;6932;51.438;5.470;2023-01-19T01:11:00;10.40;78.80
13721;DHT22;6932;51.438;5.470;2023-01-19T01:13:26;10.40;78.80
13721;DHT22;6932;51.438;5.470;2023-01-19T01:15:52;10.40;78.80
13721;DHT22;6932;51.438;5.470;2023-01-19T01:18:20;10.40;78.80
13721;DHT22;6932;51.438;5.470;2023-01-19T01:20:46;10.40;78.80
13721;DHT22;6932;51.438;5.470;2023-01-19T01:23:13;10.40;78.80
13721;DHT22;6932;51.438;5.470;2023-01-19T01:25:39;10.40;78.80
13721;DHT22;6932;51.438;5.470;2023-01-19T01:28:06;10.40;78.80
13721;DHT22;6932;51.438;5.470;2023-01-19T01:30:34;10.40;78.80
13721;DHT22;6932;51.438;5.470;2023-01-19T01:33:04;10.40;78.80
13721;DHT22;6932;51.438;5.470;2023-01-19T01:35:30;10.40;78.80
13721;DHT22;6932;51.438;5.470;2023-01-19T01:37:58;10.40;78.80
13721;DHT22;6932;51.438;5.470;2023-01-19T01:40:25;10.40;78.80
13721;DHT22;6932;51.438;5.470;2023-01-19T01:42:51;10.40;78.80
13721;DHT22;6932;51.438;5.470;2023-01-19T01:48:21;10.40;78.80
13721;DHT22;6932;51.438;5.470;2023-01-19T01:51:04;10.40;78.90
13721;DHT22;6932;51.438;5.470;2023-01-19T01:56:44;10.50;78.80
13721;DHT22;6932;51.438;5.470;2023-01-19T01:59:22;10.50;78.80
13721;DHT22;6932;51.438;5.470;2023-01-19T02:01:55;10.50;78.80
13721;DHT22;6932;51.438;5.470;2023-01-19T02:04:45;10.50;78.80
13721;DHT22;6932;51.438;5.470;2023-01-19T02:07:21;10.50;78.90
13721;DHT22;6932;51.438;5.470;2023-01-19T02:10:12;10.50;79.60
13721;DHT22;6932;51.438;5.470;2023-01-19T02:12:57;10.50;78.90
13721;DHT22;6932;51.438;5.470;2023-01-19T02:15:43;10.50;79.00
13721;DHT22;6932;51.438;5.470;2023-01-19T02:18:09;10.50;79.00
13721;DHT22;6932;51.438;5.470;2023-01-19T02:20:36;10.50;79.00
13721;DHT22;6932;51.438;5.470;2023-01-19T02:23:13;10.50;79.10
13721;DHT22;6932;51.438;5.470;2023-01-19T02:25:44;10.50;79.10
13721;DHT22;6932;51.438;5.470;2023-01-19T02:28:12;10.50;79.10
13721;DHT22;6932;51.438;5.470;2023-01-19T02:30:40;10.60;79.80
13721;DHT22;6932;51.438;5.470;2023-01-19T02:33:06;10.60;79.20
13721;DHT22;6932;51.438;5.470;2023-01-19T02:35:33;10.60;79.20
13721;DHT22;6932;51.438;5.470;2023-01-19T02:38:02;10.60;79.20
13721;DHT22;6932;51.438;5.470;2023-01-19T02:40:30;10.60;79.20
13721;DHT22;6932;51.438;5.470;2023-01-19T02:42:57;10.60;79.10
13721;DHT22;6932;51.438;5.470;2023-01-19T02:45:26;10.60;79.10
13721;DHT22;6932;51.438;5.470;2023-01-19T02:47:52;10.60;79.10
13721;DHT22;6932;51.438;5.470;2023-01-19T02:56:17;10.50;79.10
13721;DHT22;6932;51.438;5.470;2023-01-19T03:02:09;10.50;79.20
13721;DHT22;6932;51.438;5.470;2023-01-19T03:08:21;10.40;79.20
13721;DHT22;6932;51.438;5.470;2023-01-19T03:11:11;10.40;79.90
13721;DHT22;6932;51.438;5.470;2023-01-19T03:13:48;10.40;79.20
13721;DHT22;6932;51.438;5.470;2023-01-19T03:16:44;10.30;79.30
13721;DHT22;6932;51.438;5.470;2023-01-19T03:22:21;10.20;79.40
13721;DHT22;6932;51.438;5.470;2023-01-19T03:24:51;10.20;79.50
13721;DHT22;6932;51.438;5.470;2023-01-19T03:27:25;10.20;79.50
13721;DHT22;6932;51.438;5.470;2023-01-19T03:29:57;10.10;79.60
13721;DHT22;6932;51.438;5.470;2023-01-19T03:32:34;10.10;79.70
13721;DHT22;6932;51.438;5.470;2023-01-19T03:35:08;10.10;79.70
13721;DHT22;6932;51.438;5.470;2023-01-19T03:37:40;10.00;79.70
13721;DHT22;6932;51.438;5.470;2023-01-19T03:40:10;10.00;79.80
13721;DHT22;6932;51.438;5.470;2023-01-19T03:42:36;10.00;79.90
13721;DHT22;6932;51.438;5.470;2023-01-19T03:45:05;10.00;79.90
13721;DHT22;6932;51.438;5.470;2023-01-19T03:47:31;9.90;79.90
13721;DHT22;6932;51.438;5.470;2023-01-19T03:50:01;9.90;80.00
13721;DHT22;6932;51.438;5.470;2023-01-19T03:52:31;9.90;80.10
13721;DHT22;6932;51.438;5.470;2023-01-19T03:55:02;9.90;80.10
13721;DHT22;6932;51.438;5.470;2023-01-19T03:57:30;9.90;80.20
13721;DHT22;6932;51.438;5.470;2023-01-19T03:59:56;9.80;80.20
13721;DHT22;6932;51.438;5.470;2023-01-19T04:02:23;9.80;80.20
13721;DHT22;6932;51.438;5.470;2023-01-19T04:04:49;9.80;80.30
13721;DHT22;6932;51.438;5.470;2023-01-19T04:07:15;9.80;80.40
13721;DHT22;6932;51.438;5.470;2023-01-19T04:09:41;9.80;80.50
13721;DHT22;6932;51.438;5.470;2023-01-19T04:12:06;9.70;80.50
13721;DHT22;6932;51.438;5.470;2023-01-19T04:14:32;9.70;80.50
13721;DHT22;6932;51.438;5.470;2023-01-19T04:16:58;9.70;80.60
13721;DHT22;6932;51.438;5.470;2023-01-19T04:19:24;9.70;80.60
13721;DHT22;6932;51.438;5.470;2023-01-19T04:21:50;9.70;80.60
13721;DHT22;6932;51.438;5.470;2023-01-19T04:24:16;9.70;80.70
13721;DHT22;6932;51.438;5.470;2023-01-19T04:26:42;9.70;80.80
13721;DHT22;6932;51.438;5.470;2023-01-19T04:29:08;9.70;80.80
13721;DHT22;6932;51.438;5.470;2023-01-19T04:31:34;9.70;80.80
13721;DHT22;6932;51.438;5.470;2023-01-19T04:34:02;9.70;80.90
13721;DHT22;6932;51.438;5.470;2023-01-19T04:36:28;9.60;80.90
13721;DHT22;6932;51.438;5.470;2023-01-19T04:38:53;9.60;81.00
13721;DHT22;6932;51.438;5.470;2023-01-19T04:41:19;9.70;81.00
13721;DHT22;6932;51.438;5.470;2023-01-19T04:43:45;9.60;81.00
13721;DHT22;6932;51.438;5.470;2023-01-19T04:46:12;9.60;81.00
13721;DHT22;6932;51.438;5.470;2023-01-19T04:48:39;9.60;81.10
13721;DHT22;6932;51.438;5.470;2023-01-19T04:51:05;9.60;81.20
13721;DHT22;6932;51.438;5.470;2023-01-19T04:53:31;9.60;81.20
13721;DHT22;6932;51.438;5.470;2023-01-19T04:55:57;9.60;81.20
13721;DHT22;6932;51.438;5.470;2023-01-19T04:58:24;9.60;81.30
13721;DHT22;6932;51.438;5.470;2023-01-19T05:00:49;9.60;81.40
13721;DHT22;6932;51.438;5.470;2023-01-19T05:03:17;9.60;81.40
13721;DHT22;6932;51.438;5.470;2023-01-19T05:05:44;9.60;81.50
13721;DHT22;6932;51.438;5.470;2023-01-19T05:08:11;9.60;81.60
13721;DHT22;6932;51.438;5.470;2023-01-19T05:10:37;9.60;81.70
13721;DHT22;6932;51.438;5.470;2023-01-19T05:13:03;9.60;81.70
13721;DHT22;6932;51.438;5.470;2023-01-19T05:15:30;9.50;81.80
13721;DHT22;6932;51.438;5.470;2023-01-19T05:17:55;9.60;81.90
13721;DHT22;6932;51.438;5.470;2023-01-19T05:20:23;9.60;82.00
13721;DHT22;6932;51.438;5.470;2023-01-19T05:22:50;9.60;82.00
13721;DHT22;6932;51.438;5.470;2023-01-19T05:25:17;9.60;82.10
13721;DHT22;6932;51.438;5.470;2023-01-19T05:27:44;9.70;82.10
13721;DHT22;6932;51.438;5.470;2023-01-19T05:30:11;9.70;82.10
13721;DHT22;6932;51.438;5.470;2023-01-19T05:32:38;9.70;82.10
13721;DHT22;6932;51.438;5.470;2023-01-19T05:35:04;9.70;82.10
13721;DHT22;6932;51.438;5.470;2023-01-19T05:37:30;9.70;82.10
13721;DHT22;6932;51.438;5.470;2023-01-19T05:39:57;9.70;82.00
13721;DHT22;6932;51.438;5.470;2023-01-19T05:42:23;9.70;82.70
13721;DHT22;6932;51.438;5.470;2023-01-19T05:44:48;9.70;82.10
13721;DHT22;6932;51.438;5.470;2023-01-19T05:47:14;9.70;82.10
13721;DHT22;6932;51.438;5.470;2023-01-19T05:49:40;9.70;82.10
13721;DHT22;6932;51.438;5.470;2023-01-19T05:52:06;9.70;82.10
13721;DHT22;6932;51.438;5.470;2023-01-19T05:54:32;9.70;82.10
13721;DHT22;6932;51.438;5.470;2023-01-19T05:56:57;9.70;82.20
13721;DHT22;6932;51.438;5.470;2023-01-19T05:59:23;9.70;82.20
13721;DHT22;6932;51.438;5.470;2023-01-19T06:01:50;9.70;82.20
13721;DHT22;6932;51.438;5.470;2023-01-19T06:04:16;9.70;82.20
13721;DHT22;6932;51.438;5.470;2023-01-19T06:06:43;9.70;82.20
13721;DHT22;6932;51.438;5.470;2023-01-19T06:09:09;9.70;82.20
13721;DHT22;6932;51.438;5.470;2023-01-19T06:11:35;9.70;82.20
13721;DHT22;6932;51.438;5.470;2023-01-19T06:14:01;9.80;82.20
13721;DHT22;6932;51.438;5.470;2023-01-19T06:16:27;9.70;82.20
13721;DHT22;6932;51.438;5.470;2023-01-19T06:18:52;9.70;82.20
13721;DHT22;6932;51.438;5.470;2023-01-19T06:21:18;9.70;82.30
13721;DHT22;6932;51.438;5.470;2023-01-19T06:23:44;9.80;82.30
13721;DHT22;6932;51.438;5.470;2023-01-19T06:26:09;9.70;82.30
13721;DHT22;6932;51.438;5.470;2023-01-19T06:28:36;9.70;82.30
13721;DHT22;6932;51.438;5.470;2023-01-19T06:31:01;9.70;82.40
13721;DHT22;6932;51.438;5.470;2023-01-19T06:33:28;9.80;82.40
13721;DHT22;6932;51.438;5.470;2023-01-19T06:35:54;9.80;82.40
13721;DHT22;6932;51.438;5.470;2023-01-19T06:38:20;9.80;82.40
13721;DHT22;6932;51.438;5.470;2023-01-19T06:40:54;9.80;82.40
13721;DHT22;6932;51.438;5.470;2023-01-19T06:43:25;9.80;82.40
13721;DHT22;6932;51.438;5.470;2023-01-19T06:45:51;9.80;82.40
13721;DHT22;6932;51.438;5.470;2023-01-19T06:48:17;9.80;82.40
13721;DHT22;6932;51.438;5.470;2023-01-19T06:50:44;9.80;82.40
13721;DHT22;6932;51.438;5.470;2023-01-19T06:53:10;9.80;82.50
13721;DHT22;6932;51.438;5.470;2023-01-19T06:55:36;9.80;82.50
13721;DHT22;6932;51.438;5.470;2023-01-19T06:58:04;9.80;82.50
13721;DHT22;6932;51.438;5.470;2023-01-19T07:00:30;9.80;82.50
13721;DHT22;6932;51.438;5.470;2023-01-19T07:02:56;9.80;82.50
13721;DHT22;6932;51.438;5.470;2023-01-19T07:05:22;9.80;82.50
13721;DHT22;6932;51.438;5.470;2023-01-19T07:07:52;9.90;82.60
13721;DHT22;6932;51.438;5.470;2023-01-19T07:10:20;9.90;82.50
13721;DHT22;6932;51.438;5.470;2023-01-19T07:12:46;9.90;82.50
13721;DHT22;6932;51.438;5.470;2023-01-19T07:15:18;9.90;82.50
13721;DHT22;6932;51.438;5.470;2023-01-19T07:17:47;9.90;82.50
13721;DHT22;6932;51.438;5.470;2023-01-19T07:20:13;9.90;82.50
13721;DHT22;6932;51.438;5.470;2023-01-19T07:22:42;9.90;82.40
13721;DHT22;6932;51.438;5.470;2023-01-19T07:25:11;9.90;82.40
13721;DHT22;6932;51.438;5.470;2023-01-19T07:27:38;9.90;82.40
13721;DHT22;6932;51.438;5.470;2023-01-19T07:30:05;9.90;82.40
13721;DHT22;6932;51.438;5.470;2023-01-19T07:32:32;9.90;82.40
13721;DHT22;6932;51.438;5.470;2023-01-19T07:34:57;9.80;82.40
13721;DHT22;6932;51.438;5.470;2023-01-19T07:37:23;9.80;82.50
13721;DHT22;6932;51.438;5.470;2023-01-19T07:39:49;9.80;82.70
13721;DHT22;6932;51.438;5.470;2023-01-19T07:42:14;9.80;82.80
13721;DHT22;6932;51.438;5.470;2023-01-19T07:44:40;9.80;82.80
13721;DHT22;6932;51.438;5.470;2023-01-19T07:47:06;9.80;82.80
13721;DHT22;6932;51.438;5.470;2023-01-19T07:49:35;9.80;82.80
13721;DHT22;6932;51.438;5.470;2023-01-19T07:52:01;9.80;82.80
13721;DHT22;6932;51.438;5.470;2023-01-19T07:54:26;9.80;82.80
13721;DHT22;6932;51.438;5.470;2023-01-19T07:56:53;9.80;82.80
13721;DHT22;6932;51.438;5.470;2023-01-19T07:59:19;9.90;82.90
13721;DHT22;6932;51.438;5.470;2023-01-19T08:01:45;9.90;82.90
13721;DHT22;6932;51.438;5.470;2023-01-19T08:04:11;9.90;82.90
13721;DHT22;6932;51.438;5.470;2023-01-19T08:06:38;9.90;82.90
13721;DHT22;6932;51.438;5.470;2023-01-19T08:09:05;9.90;82.90
13721;DHT22;6932;51.438;5.470;2023-01-19T08:11:32;9.90;83.00
13721;DHT22;6932;51.438;5.470;2023-01-19T08:13:57;9.90;83.00
13721;DHT22;6932;51.438;5.470;2023-01-19T08:16:24;9.90;83.00
13721;DHT22;6932;51.438;5.470;2023-01-19T08:18:50;9.90;83.00
13721;DHT22;6932;51.438;5.470;2023-01-19T08:21:16;9.90;83.00
13721;DHT22;6932;51.438;5.470;2023-01-19T08:23:41;9.90;83.00
13721;DHT22;6932;51.438;5.470;2023-01-19T08:26:23;9.90;83.00
13721;DHT22;6932;51.438;5.470;2023-01-19T08:28:55;9.90;83.00
13721;DHT22;6932;51.438;5.470;2023-01-19T08:31:22;9.90;83.00
13721;DHT22;6932;51.438;5.470;2023-01-19T08:33:49;9.90;83.00
13721;DHT22;6932;51.438;5.470;2023-01-19T08:36:15;9.90;83.00
13721;DHT22;6932;51.438;5.470;2023-01-19T08:38:46;9.90;83.00
13721;DHT22;6932;51.438;5.470;2023-01-19T08:41:12;9.90;83.00
13721;DHT22;6932;51.438;5.470;2023-01-19T08:43:40;9.90;83.00
13721;DHT22;6932;51.438;5.470;2023-01-19T08:46:06;9.90;83.00
13721;DHT22;6932;51.438;5.470;2023-01-19T08:48:32;9.80;83.00
13721;DHT22;6932;51.438;5.470;2023-01-19T08:50:58;9.90;83.00
13721;DHT22;6932;51.438;5.470;2023-01-19T08:53:24;9.90;83.00
13721;DHT22;6932;51.438;5.470;2023-01-19T08:55:54;9.90;83.00
13721;DHT22;6932;51.438;5.470;2023-01-19T08:58:22;9.90;83.00
13721;DHT22;6932;51.438;5.470;2023-01-19T09:00:48;9.90;83.00
13721;DHT22;6932;51.438;5.470;2023-01-19T09:03:17;9.90;83.00
13721;DHT22;6932;51.438;5.470;2023-01-19T09:05:43;9.90;83.00
13721;DHT22;6932;51.438;5.470;2023-01-19T09:08:11;9.90;83.00
13721;DHT22;6932;51.438;5.470;2023-01-19T09:10:44;9.90;83.00
13721;DHT22;6932;51.438;5.470;2023-01-19T09:13:12;9.90;83.00
13721;DHT22;6932;51.438;5.470;2023-01-19T09:15:40;9.90;83.10
13721;DHT22;6932;51.438;5.470;2023-01-19T09:18:10;9.90;83.20
13721;DHT22;6932;51.438;5.470;2023-01-19T09:20:39;9.90;83.20
13721;DHT22;6932;51.438;5.470;2023-01-19T09:23:11;9.90;83.30
13721;DHT22;6932;51.438;5.470;2023-01-19T09:25:40;9.90;83.30
13721;DHT22;6932;51.438;5.470;2023-01-19T09:28:09;9.90;83.30
13721;DHT22;6932;51.438;5.470;2023-01-19T09:30:37;9.90;83.30
13721;DHT22;6932;51.438;5.470;2023-01-19T09:33:06;9.90;83.30
13721;DHT22;6932;51.438;5.470;2023-01-19T09:35:36;9.90;83.20
13721;DHT22;6932;51.438;5.470;2023-01-19T09:38:03;10.00;83.30
13721;DHT22;6932;51.438;5.470;2023-01-19T09:40:29;10.00;83.30
13721;DHT22;6932;51.438;5.470;2023-01-19T09:43:09;10.00;83.40
13721;DHT22;6932;51.438;5.470;2023-01-19T09:45:50;10.00;83.40
13721;DHT22;6932;51.438;5.470;2023-01-19T09:51:18;10.00;83.80
13721;DHT22;6932;51.438;5.470;2023-01-19T09:54:12;10.00;83.80
13721;DHT22;6932;51.438;5.470;2023-01-19T09:56:39;10.00;84.00
13721;DHT22;6932;51.438;5.470;2023-01-19T09:59:29;10.10;84.10
13721;DHT22;6932;51.438;5.470;2023-01-19T10:04:59;10.20;84.30
13721;DHT22;6932;51.438;5.470;2023-01-19T10:10:47;10.30;84.40
13721;DHT22;6932;51.438;5.470;2023-01-19T10:13:49;10.40;84.20
13721;DHT22;6932;51.438;5.470;2023-01-19T10:16:33;10.40;84.10
13721;DHT22;6932;51.438;5.470;2023-01-19T10:19:32;10.50;83.90
13721;DHT22;6932;51.438;5.470;2023-01-19T10:22:07;10.50;83.80
13721;DHT22;6932;51.438;5.470;2023-01-19T10:24:57;10.50;83.60
13721;DHT22;6932;51.438;5.470;2023-01-19T10:27:29;10.50;83.60
13721;DHT22;6932;51.438;5.470;2023-01-19T10:29:58;10.60;83.70
13721;DHT22;6932;51.438;5.470;2023-01-19T10:32:28;10.60;83.70
13721;DHT22;6932;51.438;5.470;2023-01-19T10:34:58;10.60;83.60
13721;DHT22;6932;51.438;5.470;2023-01-19T10:42:34;10.70;83.80
13721;DHT22;6932;51.438;5.470;2023-01-19T10:45:02;10.80;83.90
13721;DHT22;6932;51.438;5.470;2023-01-19T10:47:39;10.80;83.70
13721;DHT22;6932;51.438;5.470;2023-01-19T10:52:59;10.90;83.40
13721;DHT22;6932;51.438;5.470;2023-01-19T10:55:33;10.90;83.40
13721;DHT22;6932;51.438;5.470;2023-01-19T10:58:05;11.00;83.40
13721;DHT22;6932;51.438;5.470;2023-01-19T11:00:49;11.00;83.60
13721;DHT22;6932;51.438;5.470;2023-01-19T11:03:30;11.00;83.60
13721;DHT22;6932;51.438;5.470;2023-01-19T11:08:41;11.20;83.40
13721;DHT22;6932;51.438;5.470;2023-01-19T11:11:08;11.20;83.20
13721;DHT22;6932;51.438;5.470;2023-01-19T11:13:35;11.20;83.10
13721;DHT22;6932;51.438;5.470;2023-01-19T11:16:14;11.30;83.20
13721;DHT22;6932;51.438;5.470;2023-01-19T11:18:51;11.30;83.20
13721;DHT22;6932;51.438;5.470;2023-01-19T11:21:26;11.30;83.10
13721;DHT22;6932;51.438;5.470;2023-01-19T11:23:58;11.40;83.20
13721;DHT22;6932;51.438;5.470;2023-01-19T11:26:29;11.40;83.00
13721;DHT22;6932;51.438;5.470;2023-01-19T11:29:00;11.50;83.00
13721;DHT22;6932;51.438;5.470;2023-01-19T11:33:55;11.60;82.50
13721;DHT22;6932;51.438;5.470;2023-01-19T11:36:25;11.60;82.40
13721;DHT22;6932;51.438;5.470;2023-01-19T11:38:55;11.60;82.50
13721;DHT22;6932;51.438;5.470;2023-01-19T11:41:32;11.60;82.60
13721;DHT22;6932;51.438;5.470;2023-01-19T11:44:29;11.70;82.80
13721;DHT22;6932;51.438;5.470;2023-01-19T11:47:09;11.70;82.90
13721;DHT22;6932;51.438;5.470;2023-01-19T11:55:39;11.90;83.30
13721;DHT22;6932;51.438;5.470;2023-01-19T11:58:16;12.00;82.40
13721;DHT22;6932;51.438;5.470;2023-01-19T12:00:52;12.00;82.20
13721;DHT22;6932;51.438;5.470;2023-01-19T12:03:29;12.10;82.20
13721;DHT22;6932;51.438;5.470;2023-01-19T12:06:03;12.10;82.20
13721;DHT22;6932;51.438;5.470;2023-01-19T12:08:40;12.20;81.90
13721;DHT22;6932;51.438;5.470;2023-01-19T12:11:13;12.20;81.80
13721;DHT22;6932;51.438;5.470;2023-01-19T12:13:44;12.20;81.40
13721;DHT22;6932;51.438;5.470;2023-01-19T12:16:25;12.30;81.30
13721;DHT22;6932;51.438;5.470;2023-01-19T12:19:06;12.30;81.30
13721;DHT22;6932;51.438;5.470;2023-01-19T12:21:41;12.20;81.20
13721;DHT22;6932;51.438;5.470;2023-01-19T12:24:34;12.30;81.30
13721;DHT22;6932;51.438;5.470;2023-01-19T12:27:15;12.20;81.30
13721;DHT22;6932;51.438;5.470;2023-01-19T12:30:02;12.30;81.20
13721;DHT22;6932;51.438;5.470;2023-01-19T12:32:32;12.30;81.20
13721;DHT22;6932;51.438;5.470;2023-01-19T12:34:59;12.20;81.30
13721;DHT22;6932;51.438;5.470;2023-01-19T12:37:35;12.20;81.30
13721;DHT22;6932;51.438;5.470;2023-01-19T12:40:26;12.20;81.30
13721;DHT22;6932;51.438;5.470;2023-01-19T12:43:03;12.20;81.40
13721;DHT22;6932;51.438;5.470;2023-01-19T12:45:35;12.20;81.40
13721;DHT22;6932;51.438;5.470;2023-01-19T12:48:03;12.30;81.50
13721;DHT22;6932;51.438;5.470;2023-01-19T12:50:35;12.30;81.50
13721;DHT22;6932;51.438;5.470;2023-01-19T12:53:03;12.30;81.40
13721;DHT22;6932;51.438;5.470;2023-01-19T12:55:39;12.30;81.20
13721;DHT22;6932;51.438;5.470;2023-01-19T12:58:15;12.30;81.10
13721;DHT22;6932;51.438;5.470;2023-01-19T13:00:47;12.30;81.10
13721;DHT22;6932;51.438;5.470;2023-01-19T13:13:36;12.30;80.30
13721;DHT22;6932;51.438;5.470;2023-01-19T13:21:42;12.20;80.30
13721;DHT22;6932;51.438;5.470;2023-01-19T13:24:18;12.10;80.10
13721;DHT22;6932;51.438;5.470;2023-01-19T13:31:58;12.00;80.30
13721;DHT22;6932;51.438;5.470;2023-01-19T13:34:46;12.00;80.20
13721;DHT22;6932;51.438;5.470;2023-01-19T13:37:22;12.00;80.10
13721;DHT22;6932;51.438;5.470;2023-01-19T13:39:53;11.90;80.10
13721;DHT22;6932;51.438;5.470;2023-01-19T13:42:39;11.90;80.20
13721;DHT22;6932;51.438;5.470;2023-01-19T13:48:16;11.80;80.40
13721;DHT22;6932;51.438;5.470;2023-01-19T13:50:59;11.80;80.50
13721;DHT22;6932;51.438;5.470;2023-01-19T13:53:27;11.80;80.60
13721;DHT22;6932;51.438;5.470;2023-01-19T13:56:21;11.80;81.40
13721;DHT22;6932;51.438;5.470;2023-01-19T13:59:12;11.70;80.90
13721;DHT22;6932;51.438;5.470;2023-01-19T14:01:40;11.80;80.90
13721;DHT22;6932;51.438;5.470;2023-01-19T14:04:33;11.70;80.90
13721;DHT22;6932;51.438;5.470;2023-01-19T14:07:05;11.70;80.90
13721;DHT22;6932;51.438;5.470;2023-01-19T14:10:09;11.80;80.90
13721;DHT22;6932;51.438;5.470;2023-01-19T14:12:37;11.70;80.90
13721;DHT22;6932;51.438;5.470;2023-01-19T14:15:04;11.70;80.90
13721;DHT22;6932;51.438;5.470;2023-01-19T14:17:35;11.80;80.90
13721;DHT22;6932;51.438;5.470;2023-01-19T14:20:01;11.70;81.00
13721;DHT22;6932;51.438;5.470;2023-01-19T14:22:40;11.70;81.00
13721;DHT22;6932;51.438;5.470;2023-01-19T14:25:30;11.70;80.90
13721;DHT22;6932;51.438;5.470;2023-01-19T14:28:26;11.70;80.90
13721;DHT22;6932;51.438;5.470;2023-01-19T14:31:20;11.70;80.90
13721;DHT22;6932;51.438;5.470;2023-01-19T14:33:51;11.70;80.80
13721;DHT22;6932;51.438;5.470;2023-01-19T14:38:50;11.70;80.90
13721;DHT22;6932;51.438;5.470;2023-01-19T14:41:42;11.60;80.90
13721;DHT22;6932;51.438;5.470;2023-01-19T14:44:34;11.60;80.90
13721;DHT22;6932;51.438;5.470;2023-01-19T14:47:03;11.60;80.90
13721;DHT22;6932;51.438;5.470;2023-01-19T14:49:32;11.70;81.00
13721;DHT22;6932;51.438;5.470;2023-01-19T14:52:24;11.70;80.90
13721;DHT22;6932;51.438;5.470;2023-01-19T14:54:57;11.60;80.80
13721;DHT22;6932;51.438;5.470;2023-01-19T14:57:24;11.60;80.60
13721;DHT22;6932;51.438;5.470;2023-01-19T14:59:50;11.60;80.60
13721;DHT22;6932;51.438;5.470;2023-01-19T15:02:17;11.60;80.60
13721;DHT22;6932;51.438;5.470;2023-01-19T15:04:44;11.60;80.50
13721;DHT22;6932;51.438;5.470;2023-01-19T15:07:16;11.60;80.50
13721;DHT22;6932;51.438;5.470;2023-01-19T15:09:44;11.60;80.40
13721;DHT22;6932;51.438;5.470;2023-01-19T15:12:13;11.60;80.90
13721;DHT22;6932;51.438;5.470;2023-01-19T15:14:41;11.50;80.10
13721;DHT22;6932;51.438;5.470;2023-01-19T15:17:14;11.50;80.10
13721;DHT22;6932;51.438;5.470;2023-01-19T15:19:50;11.50;80.00
13721;DHT22;6932;51.438;5.470;2023-01-19T15:22:17;11.40;80.00
13721;DHT22;6932;51.438;5.470;2023-01-19T15:24:43;11.40;80.20
13721;DHT22;6932;51.438;5.470;2023-01-19T15:27:10;11.40;80.20
13721;DHT22;6932;51.438;5.470;2023-01-19T15:29:37;11.30;80.00
13721;DHT22;6932;51.438;5.470;2023-01-19T15:32:11;11.30;79.90
13721;DHT22;6932;51.438;5.470;2023-01-19T15:34:37;11.30;79.90
13721;DHT22;6932;51.438;5.470;2023-01-19T15:37:03;11.30;80.00
13721;DHT22;6932;51.438;5.470;2023-01-19T15:39:29;11.30;80.00
13721;DHT22;6932;51.438;5.470;2023-01-19T15:41:55;11.20;80.00
13721;DHT22;6932;51.438;5.470;2023-01-19T15:44:20;11.20;80.00
13721;DHT22;6932;51.438;5.470;2023-01-19T15:46:46;11.20;79.90
13721;DHT22;6932;51.438;5.470;2023-01-19T15:49:12;11.20;80.00
13721;DHT22;6932;51.438;5.470;2023-01-19T15:51:37;11.20;80.00
13721;DHT22;6932;51.438;5.470;2023-01-19T15:54:03;11.10;80.00
13721;DHT22;6932;51.438;5.470;2023-01-19T15:56:30;11.10;80.00
13721;DHT22;6932;51.438;5.470;2023-01-19T15:58:57;11.10;80.10
13721;DHT22;6932;51.438;5.470;2023-01-19T16:01:26;11.10;80.20
13721;DHT22;6932;51.438;5.470;2023-01-19T16:04:00;11.10;80.20
13721;DHT22;6932;51.438;5.470;2023-01-19T16:06:29;11.00;80.20
13721;DHT22;6932;51.438;5.470;2023-01-19T16:08:56;11.00;80.20
13721;DHT22;6932;51.438;5.470;2023-01-19T16:11:26;11.00;80.30
13721;DHT22;6932;51.438;5.470;2023-01-19T16:13:54;11.00;80.40
13721;DHT22;6932;51.438;5.470;2023-01-19T16:16:22;11.00;80.50
13721;DHT22;6932;51.438;5.470;2023-01-19T16:18:49;10.90;80.40
13721;DHT22;6932;51.438;5.470;2023-01-19T16:21:15;10.90;80.40
13721;DHT22;6932;51.438;5.470;2023-01-19T16:23:41;10.90;80.50
13721;DHT22;6932;51.438;5.470;2023-01-19T16:26:26;10.90;80.50
13721;DHT22;6932;51.438;5.470;2023-01-19T16:28:59;10.90;80.50
13721;DHT22;6932;51.438;5.470;2023-01-19T16:31:32;10.90;80.60
13721;DHT22;6932;51.438;5.470;2023-01-19T16:33:57;10.90;80.70
13721;DHT22;6932;51.438;5.470;2023-01-19T16:36:26;10.90;80.70
13721;DHT22;6932;51.438;5.470;2023-01-19T16:39:14;10.90;80.80
13721;DHT22;6932;51.438;5.470;2023-01-19T16:41:41;10.80;80.80
13721;DHT22;6932;51.438;5.470;2023-01-19T16:44:10;10.90;80.80
13721;DHT22;6932;51.438;5.470;2023-01-19T16:46:39;10.90;80.90
13721;DHT22;6932;51.438;5.470;2023-01-19T16:49:14;10.80;80.90
13721;DHT22;6932;51.438;5.470;2023-01-19T16:51:40;10.80;80.90
13721;DHT22;6932;51.438;5.470;2023-01-19T16:54:07;10.90;80.90
13721;DHT22;6932;51.438;5.470;2023-01-19T16:56:37;10.90;81.00
13721;DHT22;6932;51.438;5.470;2023-01-19T16:59:03;10.90;81.00
13721;DHT22;6932;51.438;5.470;2023-01-19T17:01:29;10.80;80.90
13721;DHT22;6932;51.438;5.470;2023-01-19T17:03:55;10.80;80.90
13721;DHT22;6932;51.438;5.470;2023-01-19T17:06:22;10.80;80.80
13721;DHT22;6932;51.438;5.470;2023-01-19T17:08:50;10.80;80.80
13721;DHT22;6932;51.438;5.470;2023-01-19T17:11:21;10.80;80.80
13721;DHT22;6932;51.438;5.470;2023-01-19T17:13:54;10.80;80.80
13721;DHT22;6932;51.438;5.470;2023-01-19T17:16:22;10.80;80.70
13721;DHT22;6932;51.438;5.470;2023-01-19T17:18:49;10.80;80.70
13721;DHT22;6932;51.438;5.470;2023-01-19T17:21:14;10.70;80.70
13721;DHT22;6932;51.438;5.470;2023-01-19T17:23:46;10.70;80.70
13721;DHT22;6932;51.438;5.470;2023-01-19T17:26:13;10.70;80.70
13721;DHT22;6932;51.438;5.470;2023-01-19T17:28:40;10.70;80.80